Time;durP1;ratioP1;P1;durP2;ratioP2;P2;SDS_P1;SDS_P2;PMS_P1;PMS_P2;Temp;Humidity;BMP_temperature;BMP_pressure;BME280_temperature;BME280_humidity;BME280_pressure;Samples;Min_cycle;Max_cycle;Signal;HPM_P1;HPM_P2
2023/04/25 00:00:30;;;;;;;9.35;5.72;;;;;;;10.93;65.34;96573.19;4948051;28;20202;-76
2023/04/25 00:02:59;;;;;;;8.05;5.30;;;;;;;10.92;65.74;96575.00;4932181;28;20362;-77
2023/04/25 00:05:26;;;;;;;8.98;5.38;;;;;;;10.91;65.82;96572.66;4961617;28;20199;-76
2023/04/25 00:07:51;;;;;;;8.50;5.35;;;;;;;10.96;65.56;96577.88;4936929;28;20182;-77
2023/04/25 00:10:17;;;;;;;8.55;5.68;;;;;;;11.11;65.33;96577.88;4944955;28;20359;-76
2023/04/25 00:12:42;;;;;;;11.27;6.63;;;;;;;11.05;65.38;96566.69;4958452;28;20364;-77
2023/04/25 00:15:09;;;;;;;8.60;5.72;;;;;;;11.18;65.21;96572.38;4941222;28;20294;-77
2023/04/25 00:17:34;;;;;;;9.38;6.32;;;;;;;11.13;65.37;96570.56;4973535;28;20207;-76
2023/04/25 00:20:04;;;;;;;9.77;6.40;;;;;;;11.10;65.29;96578.13;4960454;28;20337;-76
2023/04/25 00:22:29;;;;;;;9.68;5.70;;;;;;;11.10;64.95;96565.88;4960822;28;20396;-77
2023/04/25 00:24:57;;;;;;;9.80;6.63;;;;;;;11.08;65.30;96567.19;4951612;28;20416;-76
2023/04/25 00:27:22;;;;;;;12.00;6.80;;;;;;;11.03;65.45;96566.13;4927626;28;20224;-76
2023/04/25 00:29:47;;;;;;;10.82;7.22;;;;;;;11.06;65.52;96568.22;4959047;28;20495;-77
2023/04/25 00:32:13;;;;;;;10.50;6.80;;;;;;;11.15;64.66;96563.25;4941890;28;20186;-77
2023/04/25 00:34:38;;;;;;;11.45;7.00;;;;;;;11.17;64.84;96576.81;4961720;28;20380;-77
2023/04/25 00:37:04;;;;;;;10.00;6.90;;;;;;;11.14;65.10;96568.72;4929675;28;20338;-77
2023/04/25 00:39:30;;;;;;;10.15;7.20;;;;;;;11.12;65.80;96568.22;4943496;28;20201;-77
2023/04/25 00:41:55;;;;;;;11.27;6.72;;;;;;;11.27;64.81;96570.03;4961081;28;20592;-76
2023/04/25 00:44:21;;;;;;;8.60;6.20;;;;;;;11.20;64.87;96565.84;4961078;28;20194;-77
2023/04/25 00:46:50;;;;;;;8.75;6.63;;;;;;;11.37;64.70;96562.97;4960784;28;20281;-76
2023/04/25 00:49:16;;;;;;;10.10;6.88;;;;;;;11.24;64.86;96559.09;4941663;28;20148;-77
2023/04/25 00:51:44;;;;;;;10.00;7.10;;;;;;;11.27;65.23;96557.78;4959375;28;20238;-77
2023/04/25 00:54:11;;;;;;;9.73;7.55;;;;;;;11.31;64.77;96550.19;4958454;28;20168;-77
2023/04/25 00:56:37;;;;;;;9.75;6.38;;;;;;;11.32;64.48;96555.16;4929311;28;20239;-77
2023/04/25 00:59:03;;;;;;;9.00;6.38;;;;;;;11.33;64.56;96548.91;4977495;28;20321;-77
2023/04/25 01:01:29;;;;;;;10.07;6.68;;;;;;;11.28;64.68;96543.72;4975748;28;20175;-77
2023/04/25 01:03:55;;;;;;;9.35;6.43;;;;;;;11.31;64.87;96553.59;4968057;28;20485;-77
2023/04/25 01:06:22;;;;;;;10.52;7.00;;;;;;;11.29;64.46;96550.47;4944805;28;20378;-77
2023/04/25 01:08:47;;;;;;;9.85;6.78;;;;;;;11.26;64.75;96543.19;4940949;28;20161;-77
2023/04/25 01:11:13;;;;;;;9.75;6.55;;;;;;;11.25;64.41;96539.00;4959462;28;20408;-78
2023/04/25 01:13:39;;;;;;;9.38;6.43;;;;;;;11.24;64.68;96540.84;4948662;28;20424;-77
2023/04/25 01:16:04;;;;;;;9.50;6.70;;;;;;;11.21;64.47;96548.41;4948202;28;20329;-77
2023/04/25 01:18:30;;;;;;;9.50;6.40;;;;;;;11.27;64.25;96549.94;4964897;28;20139;-77
2023/04/25 01:20:55;;;;;;;9.18;5.80;;;;;;;11.20;64.38;96542.41;4947529;28;20471;-77
2023/04/25 01:23:21;;;;;;;9.10;5.57;;;;;;;11.19;64.65;96546.06;4947713;28;20171;-77
2023/04/25 01:25:48;;;;;;;9.35;5.90;;;;;;;11.23;64.57;96547.09;4932709;28;20593;-77
2023/04/25 01:28:13;;;;;;;7.57;5.10;;;;;;;11.15;64.54;96539.03;4948707;28;20206;-77
2023/04/25 01:30:39;;;;;;;7.43;5.38;;;;;;;11.15;64.14;96544.25;4965220;28;20410;-78
2023/04/25 01:33:05;;;;;;;8.55;5.40;;;;;;;11.23;63.74;96548.94;4930853;28;20182;-77
2023/04/25 01:35:31;;;;;;;8.07;5.80;;;;;;;11.16;63.63;96545.81;4961956;28;20183;-77
2023/04/25 01:37:57;;;;;;;8.50;5.50;;;;;;;11.11;63.97;96551.03;4946489;28;20325;-77
2023/04/25 01:40:23;;;;;;;8.77;5.40;;;;;;;11.21;63.54;96546.59;4931153;28;20072;-78
2023/04/25 01:42:49;;;;;;;7.05;4.82;;;;;;;11.18;64.16;96546.34;4948514;28;20469;-77
2023/04/25 01:45:15;;;;;;;7.55;5.07;;;;;;;11.16;64.04;96551.03;4946203;28;20562;-77
2023/04/25 01:47:42;;;;;;;7.35;4.97;;;;;;;11.11;64.00;96541.38;4930073;28;20499;-77
2023/04/25 01:50:08;;;;;;;7.20;5.03;;;;;;;11.10;64.25;96545.03;4946871;28;20387;-77
2023/04/25 01:52:34;;;;;;;7.63;5.22;;;;;;;11.08;64.07;96557.53;4944838;28;20824;-77
2023/04/25 01:55:01;;;;;;;8.00;5.60;;;;;;;11.00;64.38;96553.66;4955348;28;20831;-77
2023/04/25 01:57:26;;;;;;;7.60;5.07;;;;;;;10.96;64.29;96547.38;4965482;28;20118;-77
2023/04/25 01:59:59;;;;;;;6.45;4.68;;;;;;;10.99;64.47;96543.50;4967021;28;20668;-77
2023/04/25 02:02:26;;;;;;;7.75;5.35;;;;;;;10.81;64.25;96531.78;4959517;28;20300;-77
2023/04/25 02:04:51;;;;;;;6.60;5.43;;;;;;;10.80;64.44;96540.63;4962162;28;20302;-77
2023/04/25 02:07:17;;;;;;;9.00;6.40;;;;;;;10.75;64.51;96533.59;4930435;28;20221;-77
2023/04/25 02:09:42;;;;;;;6.40;4.78;;;;;;;10.67;64.55;96539.31;4940125;28;20142;-77
2023/04/25 02:12:09;;;;;;;7.13;5.15;;;;;;;10.67;64.50;96532.28;4938348;28;20444;-78
2023/04/25 02:14:35;;;;;;;10.07;6.45;;;;;;;10.59;64.70;96539.84;4956827;28;20234;-77
2023/04/25 02:17:00;;;;;;;8.50;6.25;;;;;;;10.58;64.27;96533.84;4941844;28;20310;-77
2023/04/25 02:19:26;;;;;;;8.98;6.38;;;;;;;10.53;64.25;96536.44;4963681;28;20345;-77
2023/04/25 02:21:51;;;;;;;8.48;6.40;;;;;;;10.48;64.62;96537.22;4947912;28;20172;-77
2023/04/25 02:24:16;;;;;;;8.77;5.85;;;;;;;10.41;64.80;96530.72;4933161;28;20335;-78
2023/04/25 02:26:42;;;;;;;9.52;6.15;;;;;;;10.41;64.84;96533.31;4963286;28;20443;-77
2023/04/25 02:29:10;;;;;;;8.35;6.07;;;;;;;10.38;65.15;96526.81;4947463;28;20254;-77
2023/04/25 02:31:36;;;;;;;10.93;6.90;;;;;;;10.34;65.04;96520.56;4957925;28;20286;-77
2023/04/25 02:34:01;;;;;;;8.40;5.93;;;;;;;10.37;65.01;96519.28;4930789;28;20433;-77
2023/04/25 02:36:27;;;;;;;9.93;5.88;;;;;;;10.38;65.11;96531.22;4944812;28;20124;-77
2023/04/25 02:38:52;;;;;;;9.68;6.18;;;;;;;10.41;65.19;96526.28;4944425;28;20343;-77
2023/04/25 02:41:18;;;;;;;9.45;6.15;;;;;;;10.47;64.96;96527.09;4930301;28;20504;-77
2023/04/25 02:43:43;;;;;;;10.88;6.18;;;;;;;10.45;64.99;96518.75;4959335;28;20452;-77
2023/04/25 02:46:09;;;;;;;10.68;7.05;;;;;;;10.47;65.32;96521.88;4945243;28;20287;-77
2023/04/25 02:48:35;;;;;;;9.85;6.53;;;;;;;10.50;65.18;96521.34;4928624;28;20416;-77
2023/04/25 02:51:00;;;;;;;10.02;7.15;;;;;;;10.53;65.31;96523.44;4946402;28;20376;-77
2023/04/25 02:53:25;;;;;;;11.65;6.80;;;;;;;10.53;65.52;96512.25;4927377;28;20281;-78
2023/04/25 02:55:52;;;;;;;12.05;7.32;;;;;;;10.60;65.31;96505.72;4930785;28;20184;-78
2023/04/25 02:58:18;;;;;;;11.63;6.82;;;;;;;10.58;65.56;96517.47;4963264;28;20345;-77
2023/04/25 03:00:43;;;;;;;13.32;8.00;;;;;;;10.70;65.34;96525.03;4944638;28;20185;-77
2023/04/25 03:03:08;;;;;;;12.18;6.50;;;;;;;10.75;64.83;96517.97;4945911;28;20408;-77
2023/04/25 03:05:34;;;;;;;11.27;7.38;;;;;;;10.81;64.87;96518.75;4959612;28;20167;-77
2023/04/25 03:07:59;;;;;;;10.38;6.88;;;;;;;10.78;65.36;96517.47;4960090;28;20326;-77
2023/04/25 03:10:26;;;;;;;10.60;7.00;;;;;;;10.75;65.01;96514.59;4955679;28;20055;-77
2023/04/25 03:12:51;;;;;;;11.60;7.65;;;;;;;10.77;65.48;96526.31;4929994;28;20452;-77
2023/04/25 03:15:17;;;;;;;12.88;7.70;;;;;;;10.74;65.47;96521.63;4928063;28;20221;-77
2023/04/25 03:17:42;;;;;;;12.90;8.30;;;;;;;10.76;65.37;96518.75;4960135;28;20131;-77
2023/04/25 03:20:08;;;;;;;13.32;8.40;;;;;;;10.81;65.43;96518.75;4962383;28;20455;-77
2023/04/25 03:22:34;;;;;;;13.55;8.10;;;;;;;10.81;65.26;96519.53;4949895;28;20194;-77
2023/04/25 03:24:59;;;;;;;11.25;8.13;;;;;;;10.89;64.95;96523.44;4966768;28;20172;-77
2023/04/25 03:27:25;;;;;;;15.02;9.02;;;;;;;10.86;65.12;96524.75;4967792;28;20243;-77
2023/04/25 03:29:50;;;;;;;13.00;8.98;;;;;;;10.85;64.93;96535.44;4966223;28;20164;-77
2023/04/25 03:32:16;;;;;;;14.85;10.13;;;;;;;10.89;64.97;96535.69;4932540;28;20196;-77
2023/04/25 03:34:41;;;;;;;16.75;10.70;;;;;;;10.83;64.83;96529.69;4947956;28;20280;-77
2023/04/25 03:37:07;;;;;;;15.68;9.90;;;;;;;10.87;64.68;96528.91;4966462;28;20279;-77
2023/04/25 03:39:32;;;;;;;13.82;9.35;;;;;;;10.77;64.86;96525.53;4945662;28;20402;-77
2023/04/25 03:41:58;;;;;;;16.67;10.95;;;;;;;10.74;65.09;96526.81;4932648;28;20675;-77
2023/04/25 03:44:24;;;;;;;15.52;9.98;;;;;;;10.75;64.95;96531.00;4949458;28;20212;-77
2023/04/25 03:46:49;;;;;;;14.15;9.63;;;;;;;10.73;65.17;96529.69;4964780;28;20212;-77
2023/04/25 03:49:18;;;;;;;16.20;10.70;;;;;;;10.81;64.92;96521.34;4968990;28;20310;-77
2023/04/25 03:51:43;;;;;;;15.57;10.07;;;;;;;10.70;65.37;96517.22;4965489;28;20059;-77
2023/04/25 03:54:09;;;;;;;15.23;9.57;;;;;;;10.70;65.81;96520.59;4964739;28;20128;-78
2023/04/25 03:56:34;;;;;;;16.80;10.45;;;;;;;10.71;65.04;96513.53;4965143;28;20372;-77
2023/04/25 03:59:00;;;;;;;14.77;9.60;;;;;;;10.77;64.98;96525.53;4950993;28;20232;-78
2023/04/25 04:01:25;;;;;;;17.05;11.73;;;;;;;10.79;64.74;96518.22;4931511;28;20404;-77
2023/04/25 04:03:51;;;;;;;16.23;10.75;;;;;;;10.73;65.12;96519.25;4929413;28;20368;-77
2023/04/25 04:06:16;;;;;;;13.80;9.65;;;;;;;10.71;65.43;96522.16;4964002;28;20425;-78
2023/04/25 04:08:42;;;;;;;11.98;8.30;;;;;;;10.71;65.20;96529.97;4960480;28;20513;-77
2023/04/25 04:11:07;;;;;;;14.65;9.50;;;;;;;10.69;65.05;96529.41;4955092;28;20580;-77
2023/04/25 04:13:33;;;;;;;14.57;9.02;;;;;;;10.68;65.18;96525.28;4963231;28;20572;-77
2023/04/25 04:15:58;;;;;;;14.35;9.52;;;;;;;10.63;65.62;96526.03;4962444;28;20211;-77
2023/04/25 04:18:24;;;;;;;14.02;9.57;;;;;;;10.66;65.83;96532.56;4942482;28;20430;-77
2023/04/25 04:20:49;;;;;;;17.50;10.40;;;;;;;10.65;65.77;96523.19;4930037;28;20203;-77
2023/04/25 04:23:15;;;;;;;18.52;10.27;;;;;;;10.65;65.87;96523.97;4964490;28;20470;-77
2023/04/25 04:25:47;;;;;;;13.25;8.95;;;;;;;10.66;65.66;96511.75;4964192;28;20179;-77
2023/04/25 04:28:13;;;;;;;13.77;8.73;;;;;;;10.63;65.69;96513.03;4964388;28;20202;-77
2023/04/25 04:30:40;;;;;;;14.73;9.35;;;;;;;10.66;65.81;96511.75;4966305;28;20219;-77
2023/04/25 04:33:07;;;;;;;14.18;9.00;;;;;;;10.66;65.98;96511.75;4929618;28;20261;-78
2023/04/25 04:35:32;;;;;;;11.38;8.23;;;;;;;10.70;65.68;96523.19;4938800;28;20192;-77
2023/04/25 04:37:58;;;;;;;14.35;9.75;;;;;;;10.71;65.98;96518.75;4948873;28;20211;-77
2023/04/25 04:40:23;;;;;;;14.82;9.82;;;;;;;10.71;66.21;96521.34;4940636;28;20354;-78
2023/04/25 04:42:49;;;;;;;12.25;8.65;;;;;;;10.74;65.87;96520.84;4944749;28;20055;-78
2023/04/25 04:45:15;;;;;;;13.48;9.70;;;;;;;10.77;65.71;96517.72;4931839;28;20203;-77
2023/04/25 04:47:41;;;;;;;13.05;8.68;;;;;;;10.79;66.00;96523.44;4966198;28;20380;-78
2023/04/25 04:50:09;;;;;;;13.07;8.75;;;;;;;10.76;65.74;96514.34;4943720;28;20512;-77
2023/04/25 04:52:38;;;;;;;14.25;9.35;;;;;;;10.90;65.54;96519.00;4948206;28;20289;-77
2023/04/25 04:55:05;;;;;;;11.95;8.60;;;;;;;10.88;65.28;96540.09;4947499;28;20268;-78
2023/04/25 04:57:32;;;;;;;14.88;10.00;;;;;;;10.80;65.44;96528.38;4960755;28;20325;-77
2023/04/25 04:59:58;;;;;;;16.30;9.55;;;;;;;10.76;65.73;96532.56;4961694;28;20306;-77
2023/04/25 05:02:24;;;;;;;17.58;11.05;;;;;;;10.70;66.61;96536.19;4945477;28;20835;-77
2023/04/25 05:04:51;;;;;;;25.27;16.15;;;;;;;10.63;66.71;96533.84;4946242;28;20214;-78
2023/04/25 05:07:19;;;;;;;21.65;14.63;;;;;;;10.74;66.34;96531.25;4945682;28;20261;-77
2023/04/25 05:10:10;;;;;;;18.63;12.27;;;;;;;10.83;66.12;96545.31;4961821;28;20246;-77
2023/04/25 05:12:35;;;;;;;20.88;14.07;;;;;;;10.82;65.41;96541.16;4961069;28;20356;-77
2023/04/25 05:15:01;;;;;;;18.35;12.88;;;;;;;10.82;65.72;96552.34;4963312;28;20222;-77
2023/04/25 05:17:27;;;;;;;17.73;11.35;;;;;;;10.82;65.23;96554.19;4946212;28;20100;-77
2023/04/25 05:19:53;;;;;;;16.58;10.60;;;;;;;10.80;65.39;96564.06;4930930;28;20542;-77
2023/04/25 05:22:18;;;;;;;15.02;10.05;;;;;;;10.77;65.70;96561.97;4946362;28;20519;-77
2023/04/25 05:24:44;;;;;;;18.13;11.52;;;;;;;10.75;65.54;96564.84;4943427;28;20126;-77
2023/04/25 05:27:09;;;;;;;17.10;11.95;;;;;;;10.77;65.16;96569.78;4956578;28;20435;-77
2023/04/25 05:29:35;;;;;;;17.85;11.45;;;;;;;10.74;65.61;96572.91;4928602;28;20033;-77
2023/04/25 05:32:00;;;;;;;15.75;10.35;;;;;;;10.73;65.73;96563.53;4930809;28;20261;-78
2023/04/25 05:34:26;;;;;;;16.92;11.00;;;;;;;10.71;65.57;96571.63;4940742;28;20441;-77
2023/04/25 05:36:52;;;;;;;18.73;11.82;;;;;;;10.74;65.22;96583.31;4960464;28;20119;-77
2023/04/25 05:39:17;;;;;;;16.55;11.25;;;;;;;10.71;65.54;96573.44;4957084;28;20380;-77
2023/04/25 05:41:43;;;;;;;17.75;11.10;;;;;;;10.77;65.25;96581.00;4949328;28;20293;-77
2023/04/25 05:44:09;;;;;;;20.45;12.20;;;;;;;10.72;65.68;96569.78;4962916;28;20056;-78
2023/04/25 05:46:54;;;;;;;16.67;10.25;;;;;;;10.86;65.43;96576.03;4962844;28;20506;-77
2023/04/25 05:49:20;;;;;;;16.48;10.57;;;;;;;10.95;65.26;96582.31;4962899;28;20198;-77
2023/04/25 05:51:45;;;;;;;16.63;11.13;;;;;;;10.94;65.32;96578.13;4946594;28;20876;-77
2023/04/25 05:54:11;;;;;;;16.92;10.80;;;;;;;10.97;64.66;96571.63;4958570;28;20202;-77
2023/04/25 05:56:36;;;;;;;17.40;10.90;;;;;;;10.99;64.77;96585.16;4963080;28;20370;-78
2023/04/25 05:59:02;;;;;;;17.45;11.68;;;;;;;10.85;65.26;96577.09;4945346;28;20409;-77
2023/04/25 06:01:28;;;;;;;17.77;11.52;;;;;;;10.85;65.17;96580.47;4962072;28;20417;-78
2023/04/25 06:03:53;;;;;;;18.95;10.85;;;;;;;10.86;65.32;96583.84;4948120;28;20420;-77
2023/04/25 06:06:19;;;;;;;17.85;10.80;;;;;;;10.86;65.47;96591.66;4931272;28;20468;-78
2023/04/25 06:08:44;;;;;;;17.00;11.00;;;;;;;10.84;65.35;96588.53;4964399;28;20405;-77
2023/04/25 06:11:10;;;;;;;16.33;10.45;;;;;;;10.83;65.27;96579.97;4950432;28;20648;-77
2023/04/25 06:13:36;;;;;;;18.48;10.88;;;;;;;10.82;65.41;96590.63;4964644;28;20599;-77
2023/04/25 06:16:01;;;;;;;17.08;10.38;;;;;;;10.84;65.13;96581.50;4969096;28;20230;-77
2023/04/25 06:18:27;;;;;;;16.00;10.20;;;;;;;10.81;65.25;96583.84;4950131;28;20360;-78
2023/04/25 06:20:52;;;;;;;16.08;10.05;;;;;;;10.87;64.94;96593.25;4949861;28;20195;-78
2023/04/25 06:23:17;;;;;;;15.55;9.93;;;;;;;10.93;65.05;96596.63;4965872;28;20268;-78
2023/04/25 06:25:43;;;;;;;14.95;9.95;;;;;;;10.82;65.44;96591.41;4966415;28;20332;-77
2023/04/25 06:28:08;;;;;;;15.93;9.93;;;;;;;10.92;65.34;96597.69;4931638;28;20443;-78
2023/04/25 06:30:34;;;;;;;14.52;8.82;;;;;;;10.83;65.45;96592.19;4972906;28;20407;-77
2023/04/25 06:32:59;;;;;;;16.65;9.48;;;;;;;10.82;65.34;96588.03;4969391;28;20595;-77
2023/04/25 06:35:25;;;;;;;13.80;9.20;;;;;;;10.90;65.54;96586.72;4930548;28;20201;-78
2023/04/25 06:37:50;;;;;;;15.70;8.80;;;;;;;10.99;65.13;96596.34;4970089;28;20521;-78
2023/04/25 06:40:17;;;;;;;15.07;9.23;;;;;;;11.00;64.77;96597.94;4965746;28;20331;-77
2023/04/25 06:42:42;;;;;;;13.57;8.63;;;;;;;10.98;64.99;96601.81;4949625;28;20224;-78
2023/04/25 06:45:08;;;;;;;14.05;9.05;;;;;;;10.96;65.30;96604.69;4964755;28;20117;-78
2023/04/25 06:47:34;;;;;;;14.23;9.43;;;;;;;11.02;64.69;96601.06;4936588;28;20374;-78
2023/04/25 06:49:59;;;;;;;13.20;8.35;;;;;;;11.05;64.70;96610.97;4946540;28;20191;-77
2023/04/25 06:52:24;;;;;;;11.80;7.38;;;;;;;11.03;64.99;96612.25;4929027;28;20207;-78
2023/04/25 06:54:50;;;;;;;15.45;9.15;;;;;;;11.01;65.19;96604.69;4941984;28;20243;-77
2023/04/25 06:57:15;;;;;;;12.80;8.75;;;;;;;11.03;64.83;96605.19;4939618;28;20174;-77
2023/04/25 06:59:41;;;;;;;13.32;8.77;;;;;;;11.13;64.83;96612.25;4940792;28;20163;-78
2023/04/25 07:02:06;;;;;;;12.70;8.07;;;;;;;11.12;64.17;96602.09;4957508;28;20102;-78
2023/04/25 07:04:31;;;;;;;13.55;8.27;;;;;;;11.10;64.68;96617.19;4939864;28;20168;-78
2023/04/25 07:06:57;;;;;;;12.63;8.27;;;;;;;11.05;64.71;96616.16;4967557;28;20284;-78
2023/04/25 07:09:23;;;;;;;12.18;8.00;;;;;;;11.07;64.98;96618.50;4958174;28;20199;-78
2023/04/25 07:11:48;;;;;;;11.35;7.95;;;;;;;11.10;65.13;96622.41;4945651;28;20211;-78
2023/04/25 07:14:14;;;;;;;12.13;8.27;;;;;;;11.12;64.98;96625.53;4957747;28;20211;-78
2023/04/25 07:16:40;;;;;;;12.35;6.68;;;;;;;11.13;64.78;96634.91;4960326;28;20118;-78
2023/04/25 07:19:05;;;;;;;11.98;7.88;;;;;;;11.05;65.45;96629.19;4962698;28;20240;-78
2023/04/25 07:21:31;;;;;;;12.70;7.63;;;;;;;11.12;65.24;96638.56;4938923;28;20215;-78
2023/04/25 07:23:57;;;;;;;12.45;8.70;;;;;;;11.07;64.85;96631.53;4936865;28;20309;-78
2023/04/25 07:26:22;;;;;;;11.23;7.22;;;;;;;10.94;65.35;96622.41;4941122;28;20194;-78
2023/04/25 07:28:50;;;;;;;9.95;6.68;;;;;;;11.00;65.64;96631.81;4933084;28;20408;-78
2023/04/25 07:31:17;;;;;;;11.63;7.85;;;;;;;11.07;65.43;96628.94;4946923;28;20312;-78
2023/04/25 07:33:44;;;;;;;11.23;7.25;;;;;;;11.09;65.44;96628.66;4941066;28;20207;-78
2023/04/25 07:36:10;;;;;;;11.02;7.78;;;;;;;11.16;64.55;96637.78;4953187;28;20423;-78
2023/04/25 07:38:36;;;;;;;11.75;6.97;;;;;;;11.23;64.32;96640.91;4945139;28;20137;-78
2023/04/25 07:41:01;;;;;;;11.45;6.75;;;;;;;11.12;64.67;96630.75;4945829;28;20360;-78
2023/04/25 07:43:26;;;;;;;12.13;8.43;;;;;;;11.11;65.26;96634.41;4932224;28;20514;-78
2023/04/25 07:45:52;;;;;;;9.52;7.28;;;;;;;11.13;65.53;96643.50;4966920;28;20193;-78
2023/04/25 07:48:18;;;;;;;10.68;7.40;;;;;;;11.31;64.64;96639.63;4945327;28;20083;-78
2023/04/25 07:50:44;;;;;;;11.90;8.13;;;;;;;11.18;65.05;96645.34;4964386;28;20259;-78
2023/04/25 07:53:10;;;;;;;10.45;6.80;;;;;;;11.18;65.40;96645.34;4932044;28;20539;-78
2023/04/25 07:55:36;;;;;;;10.68;7.22;;;;;;;11.24;65.35;96671.16;4927775;28;20331;-78
2023/04/25 07:58:02;;;;;;;12.57;8.25;;;;;;;11.25;65.12;96658.88;4945056;28;20282;-78
2023/04/25 08:00:28;;;;;;;12.57;8.07;;;;;;;11.30;65.02;96666.72;4954114;28;20280;-78
2023/04/25 08:02:53;;;;;;;12.32;8.55;;;;;;;11.30;64.57;96664.09;4951663;28;20276;-78
2023/04/25 08:05:19;;;;;;;12.50;8.63;;;;;;;11.30;64.77;96669.31;4958964;28;20194;-78
2023/04/25 08:07:44;;;;;;;12.50;8.52;;;;;;;11.43;64.32;96666.19;4968602;28;20202;-78
2023/04/25 08:10:10;;;;;;;11.40;8.43;;;;;;;11.48;64.71;96675.84;4950240;28;20214;-78
2023/04/25 08:12:37;;;;;;;14.75;8.52;;;;;;;11.62;65.72;96681.28;4958075;28;20296;-78
2023/04/25 08:15:03;;;;;;;15.43;9.27;;;;;;;11.88;65.02;96689.09;4958979;28;20276;-78
2023/04/25 08:17:29;;;;;;;16.20;9.70;;;;;;;11.94;63.58;96686.22;4948085;28;20507;-78
2023/04/25 08:19:55;;;;;;;13.70;9.38;;;;;;;11.94;63.61;96682.81;4938964;28;20532;-78
2023/04/25 08:22:20;;;;;;;13.95;9.23;;;;;;;11.94;63.89;96688.03;4931687;28;20037;-78
2023/04/25 08:24:46;;;;;;;14.75;9.38;;;;;;;12.08;62.72;96696.88;4975385;28;20166;-77
2023/04/25 08:27:12;;;;;;;12.45;8.13;;;;;;;11.93;61.77;96689.88;4934153;28;20101;-78
2023/04/25 08:29:37;;;;;;;11.00;8.18;;;;;;;11.76;61.73;96708.38;4954255;28;20336;-79
2023/04/25 08:32:02;;;;;;;10.32;6.63;;;;;;;11.35;62.45;96716.22;4960598;28;20618;-79
2023/04/25 08:34:28;;;;;;;9.48;6.72;;;;;;;11.25;63.30;96714.38;4963715;28;20203;-78
2023/04/25 08:36:53;;;;;;;10.18;7.13;;;;;;;11.17;64.21;96732.38;4961127;28;20211;-79
2023/04/25 08:39:20;;;;;;;9.80;6.93;;;;;;;11.00;64.36;96741.22;4944987;28;20198;-80
2023/04/25 08:41:46;;;;;;;7.00;5.03;;;;;;;10.82;63.80;96750.25;4945944;28;20269;-80
2023/04/25 08:44:11;;;;;;;7.88;5.53;;;;;;;10.55;64.41;96753.03;4968243;28;20312;-81
2023/04/25 08:46:40;;;;;;;8.68;5.80;;;;;;;10.45;64.56;96742.56;4963283;28;20160;-78
2023/04/25 08:49:07;;;;;;;10.55;6.60;;;;;;;10.32;65.36;96756.84;4963005;28;20284;-79
2023/04/25 08:51:32;;;;;;;11.43;6.20;;;;;;;10.51;65.28;96761.63;4957947;28;20198;-79
2023/04/25 08:54:08;;;;;;;13.30;6.20;;;;;;;10.57;64.96;96753.56;4947859;28;20451;-78
2023/04/25 08:56:34;;;;;;;9.57;6.30;;;;;;;10.46;65.21;96764.97;4968658;28;20087;-78
2023/04/25 08:59:01;;;;;;;11.05;6.95;;;;;;;10.41;65.63;96757.91;4966627;28;20405;-79
2023/04/25 09:01:27;;;;;;;11.98;7.90;;;;;;;10.15;67.03;96771.81;4951846;28;20198;-79
2023/04/25 09:03:52;;;;;;;15.18;8.15;;;;;;;9.83;68.52;96772.63;4968292;28;20230;-78
2023/04/25 09:06:19;;;;;;;13.82;8.32;;;;;;;10.09;67.37;96778.78;4949143;28;20110;-78
2023/04/25 09:08:44;;;;;;;16.80;9.38;;;;;;;10.19;67.35;96778.84;4959580;28;20358;-78
2023/04/25 09:11:10;;;;;;;15.20;8.73;;;;;;;9.99;68.30;96782.09;4926504;28;20529;-78
2023/04/25 09:13:35;;;;;;;17.15;9.32;;;;;;;9.99;68.36;96796.91;4961953;28;20272;-78
2023/04/25 09:16:01;;;;;;;16.50;9.55;;;;;;;10.02;68.07;96799.03;4947868;28;20293;-79
2023/04/25 09:18:28;;;;;;;13.48;8.23;;;;;;;10.29;66.99;96791.91;4960058;28;20311;-77
2023/04/25 09:20:56;;;;;;;13.70;7.82;;;;;;;10.35;66.46;96799.78;4958407;28;20198;-78
2023/04/25 09:23:22;;;;;;;12.60;8.18;;;;;;;10.29;66.68;96809.34;4958685;28;20364;-79
2023/04/25 09:25:49;;;;;;;12.52;8.02;;;;;;;9.97;66.59;96823.16;4961055;28;20318;-78
2023/04/25 09:28:15;;;;;;;17.05;9.10;;;;;;;10.05;67.59;96816.72;4967265;28;20025;-78
2023/04/25 09:30:40;;;;;;;15.23;8.07;;;;;;;10.41;65.98;96814.41;4979114;28;20819;-78
2023/04/25 09:33:07;;;;;;;12.38;6.95;;;;;;;10.46;65.79;96809.22;4961293;28;20778;-78
2023/04/25 09:35:42;;;;;;;12.65;7.55;;;;;;;10.62;67.08;96821.25;4950975;28;20068;-78
2023/04/25 09:38:12;;;;;;;15.07;8.13;;;;;;;10.63;66.78;96825.44;4950828;28;20025;-78
2023/04/25 09:40:41;;;;;;;12.95;7.82;;;;;;;10.75;66.64;96832.28;4965587;28;20042;-78
2023/04/25 09:43:16;;;;;;;13.50;7.70;;;;;;;11.02;65.83;96840.72;4949414;28;20128;-78
2023/04/25 09:45:45;;;;;;;14.65;7.95;;;;;;;10.96;65.49;96839.13;4947056;28;20029;-77
2023/04/25 09:48:12;;;;;;;13.60;7.55;;;;;;;10.52;66.83;96839.47;4961600;28;20029;-77
2023/04/25 09:50:39;;;;;;;14.13;8.10;;;;;;;10.35;67.45;96841.41;4953787;28;20033;-78
2023/04/25 09:53:05;;;;;;;15.02;8.75;;;;;;;10.52;66.88;96847.25;4938971;28;20029;-78
2023/04/25 09:55:32;;;;;;;17.05;8.50;;;;;;;10.77;67.03;96848.44;4971266;28;20039;-78
2023/04/25 09:58:00;;;;;;;12.55;7.50;;;;;;;10.55;65.93;96851.94;4971862;28;20067;-78
2023/04/25 10:00:26;;;;;;;10.88;6.40;;;;;;;10.98;65.81;96859.72;4965020;28;20102;-78
2023/04/25 10:02:52;;;;;;;10.63;6.40;;;;;;;10.75;64.56;96855.72;4962406;28;20028;-78
2023/04/25 10:05:18;;;;;;;11.52;6.88;;;;;;;11.11;65.53;96855.88;4947913;28;20844;-78
2023/04/25 10:07:44;;;;;;;13.38;7.38;;;;;;;11.22;66.54;96863.47;4967577;28;20429;-78
2023/04/25 10:10:12;;;;;;;12.27;6.70;;;;;;;11.33;65.27;96859.06;4938577;28;20449;-77
2023/04/25 10:12:40;;;;;;;9.85;6.25;;;;;;;11.60;62.71;96860.69;4954971;28;20033;-78
2023/04/25 10:15:07;;;;;;;13.27;6.63;;;;;;;11.77;63.81;96869.06;4946894;28;20131;-77
2023/04/25 10:17:34;;;;;;;11.10;6.53;;;;;;;11.74;64.69;96864.38;4947302;28;20133;-77
2023/04/25 10:20:03;;;;;;;13.35;7.72;;;;;;;12.19;64.38;96867.28;4930215;28;20034;-78
2023/04/25 10:22:37;;;;;;;11.60;6.05;;;;;;;12.22;63.11;96861.53;4961040;28;20088;-78
2023/04/25 10:25:04;;;;;;;11.13;5.78;;;;;;;12.25;62.27;96870.66;4951436;28;20062;-78
2023/04/25 10:27:30;;;;;;;12.18;6.75;;;;;;;12.12;61.07;96875.38;4919369;28;20111;-77
2023/04/25 10:30:04;;;;;;;10.85;5.72;;;;;;;12.10;61.41;96869.63;4953421;28;20119;-78
2023/04/25 10:32:33;;;;;;;9.82;6.75;;;;;;;12.00;61.75;96867.03;4962779;28;20040;-77
2023/04/25 10:35:10;;;;;;;10.55;6.20;;;;;;;12.07;62.36;96866.78;4953190;28;20035;-78
2023/04/25 10:37:36;;;;;;;11.38;7.75;;;;;;;11.42;62.88;96860.13;4979504;28;20029;-77
2023/04/25 10:40:09;;;;;;;11.52;6.30;;;;;;;11.90;62.38;96859.16;4967651;28;20036;-77
2023/04/25 10:42:35;;;;;;;13.70;6.88;;;;;;;12.41;59.63;96869.63;4965070;28;20037;-78
2023/04/25 10:45:03;;;;;;;10.38;6.70;;;;;;;12.48;61.21;96861.50;4945090;28;20071;-77
2023/04/25 10:47:35;;;;;;;9.02;6.07;;;;;;;12.91;59.52;96867.16;4962119;28;20037;-78
2023/04/25 10:50:05;;;;;;;11.52;6.72;;;;;;;13.15;60.22;96864.72;4954164;28;20128;-77
2023/04/25 10:52:32;;;;;;;12.45;6.65;;;;;;;13.66;58.27;96863.69;4969998;28;20045;-77
2023/04/25 10:54:58;;;;;;;9.88;5.88;;;;;;;13.71;58.08;96873.31;4958262;28;20020;-78
2023/04/25 10:57:30;;;;;;;9.00;5.50;;;;;;;13.81;55.43;96870.66;4962871;28;20585;-77
2023/04/25 11:00:00;;;;;;;11.70;5.85;;;;;;;13.65;55.73;96868.13;4962874;28;20037;-78
2023/04/25 11:02:28;;;;;;;10.75;5.82;;;;;;;13.40;56.44;96871.69;4962165;28;20029;-77
2023/04/25 11:04:53;;;;;;;9.80;5.93;;;;;;;13.12;58.26;96873.09;4950683;28;20281;-78
2023/04/25 11:07:38;;;;;;;8.48;5.95;;;;;;;13.21;57.76;96868.88;4969703;28;20328;-77
2023/04/25 11:10:04;;;;;;;11.38;5.82;;;;;;;12.79;59.39;96875.28;4962611;28;20048;-77
2023/04/25 11:12:31;;;;;;;8.80;5.20;;;;;;;13.11;57.96;96874.16;4934549;28;20248;-78
2023/04/25 11:15:04;;;;;;;10.38;6.70;;;;;;;13.35;59.22;96883.97;4937269;28;20032;-78
2023/04/25 11:17:30;;;;;;;10.05;6.10;;;;;;;13.40;58.92;96881.34;4946855;28;20025;-77
2023/04/25 11:19:56;;;;;;;9.18;5.70;;;;;;;12.97;58.03;96878.38;4961913;28;20083;-77
2023/04/25 11:22:22;;;;;;;7.85;5.38;;;;;;;12.76;59.13;96881.03;4981802;28;20045;-77